Time;durP1;ratioP1;P1;durP2;ratioP2;P2;SDS_P1;SDS_P2;PMS_P1;PMS_P2;Temp;Humidity;BMP_temperature;BMP_pressure;BME280_temperature;BME280_humidity;BME280_pressure;Samples;Min_cycle;Max_cycle;Signal;HPM_P1;HPM_P2
2022/07/11 00:02:13;;;;;;;0.57;0.57;;;19.80;84.00;;;;;;5117904;28;20762;-94
2022/07/11 00:04:40;;;;;;;1.47;1.07;;;19.70;84.10;;;;;;5114661;28;20423;-94
2022/07/11 00:07:06;;;;;;;0.70;0.70;;;19.70;84.10;;;;;;5114168;28;20471;-93
2022/07/11 00:09:32;;;;;;;0.60;0.60;;;19.70;84.40;;;;;;5114185;28;20465;-94
2022/07/11 00:11:59;;;;;;;1.00;0.80;;;19.70;84.50;;;;;;5115530;28;20456;-95
2022/07/11 00:14:25;;;;;;;0.70;0.60;;;19.60;84.50;;;;;;5115888;28;20412;-92
2022/07/11 00:16:54;;;;;;;0.90;0.70;;;19.60;84.60;;;;;;5113790;28;20525;-95
2022/07/11 00:19:23;;;;;;;0.63;0.63;;;19.60;84.70;;;;;;5114197;28;20405;-93
2022/07/11 00:21:52;;;;;;;0.73;0.73;;;19.60;84.70;;;;;;5115441;28;20455;-92
2022/07/11 00:24:19;;;;;;;0.80;0.70;;;19.60;84.60;;;;;;5115264;28;20393;-92
2022/07/11 00:26:48;;;;;;;1.20;0.90;;;19.60;84.60;;;;;;5115175;28;20458;-92
2022/07/11 00:29:15;;;;;;;4.07;0.70;;;19.60;84.60;;;;;;5114214;28;20413;-92
2022/07/11 00:31:41;;;;;;;0.60;0.57;;;19.60;84.60;;;;;;5114999;28;20511;-92
2022/07/11 00:34:06;;;;;;;1.63;0.80;;;19.60;84.70;;;;;;5115104;28;20401;-94
2022/07/11 00:36:32;;;;;;;1.87;0.90;;;19.50;84.90;;;;;;5114014;28;20450;-92
2022/07/11 00:38:58;;;;;;;3.03;0.90;;;19.50;85.10;;;;;;5115154;28;20262;-93
2022/07/11 00:41:24;;;;;;;1.23;0.80;;;19.50;85.20;;;;;;5114848;28;20587;-95
2022/07/11 00:43:53;;;;;;;0.93;0.70;;;19.40;85.50;;;;;;5114032;28;20448;-93
2022/07/11 00:46:19;;;;;;;0.67;0.60;;;19.30;86.40;;;;;;5114313;28;20425;-93
2022/07/11 00:48:45;;;;;;;1.77;0.80;;;19.20;85.90;;;;;;5118078;28;20466;-93
2022/07/11 00:51:12;;;;;;;0.97;0.70;;;19.20;86.10;;;;;;5115161;28;20480;-93
2022/07/11 00:53:39;;;;;;;0.83;0.83;;;19.10;86.30;;;;;;5122161;28;20792;-95
2022/07/11 00:56:05;;;;;;;0.90;0.90;;;19.00;86.40;;;;;;5117523;28;20958;-94
2022/07/11 00:58:31;;;;;;;2.60;0.80;;;18.90;86.70;;;;;;5117313;28;20416;-93
2022/07/11 01:00:57;;;;;;;0.60;0.60;;;18.90;87.00;;;;;;5119152;28;20477;-94
2022/07/11 01:03:23;;;;;;;0.80;0.80;;;18.80;87.10;;;;;;5118342;28;20442;-92
2022/07/11 01:05:49;;;;;;;2.10;0.70;;;18.80;87.30;;;;;;5117216;28;20472;-92
2022/07/11 01:08:15;;;;;;;0.80;0.80;;;18.70;87.40;;;;;;5117623;28;20200;-93
2022/07/11 01:10:40;;;;;;;1.50;0.90;;;18.70;87.40;;;;;;5119389;28;20215;-92
2022/07/11 01:13:07;;;;;;;0.67;0.67;;;18.70;87.40;;;;;;5118612;28;20440;-93
2022/07/11 01:15:35;;;;;;;0.93;0.83;;;18.70;87.50;;;;;;5118429;28;20404;-93
2022/07/11 01:18:04;;;;;;;2.10;0.83;;;18.60;87.60;;;;;;5117277;28;20526;-93
2022/07/11 01:20:30;;;;;;;1.47;1.13;;;18.60;87.90;;;;;;5117097;28;20416;-95
2022/07/11 01:23:03;;;;;;;0.70;0.70;;;18.50;88.00;;;;;;5120072;28;20535;-93
2022/07/11 01:25:30;;;;;;;0.63;0.63;;;18.50;88.30;;;;;;5117051;28;20787;-92
2022/07/11 01:28:06;;;;;;;1.27;0.80;;;18.50;88.40;;;;;;5118269;28;20436;-92
2022/07/11 01:30:33;;;;;;;1.73;1.03;;;18.50;88.40;;;;;;5117001;28;20878;-92
2022/07/11 01:32:59;;;;;;;1.40;0.70;;;18.40;88.40;;;;;;5116952;28;20861;-96
2022/07/11 01:35:26;;;;;;;0.83;0.70;;;18.40;88.50;;;;;;5118507;28;20505;-93
2022/07/11 01:37:52;;;;;;;0.80;0.80;;;18.40;88.50;;;;;;5116816;28;20446;-92
2022/07/11 01:40:18;;;;;;;3.23;1.00;;;18.40;88.50;;;;;;5121367;28;20412;-93
2022/07/11 01:42:43;;;;;;;1.00;0.90;;;18.40;88.60;;;;;;5124145;28;20196;-93
2022/07/11 01:45:10;;;;;;;0.83;0.70;;;18.40;88.70;;;;;;5117054;28;20499;-94
2022/07/11 01:47:36;;;;;;;0.70;0.70;;;18.40;88.90;;;;;;5116742;28;20227;-95
2022/07/11 01:50:03;;;;;;;1.33;0.93;;;18.30;89.00;;;;;;5118822;28;20460;-95
2022/07/11 01:52:32;;;;;;;1.13;1.00;;;18.30;89.00;;;;;;5117452;28;20440;-95
2022/07/11 01:54:57;;;;;;;0.80;0.80;;;18.30;89.10;;;;;;5116342;28;20420;-92
2022/07/11 01:57:23;;;;;;;2.87;1.20;;;18.30;89.30;;;;;;5117664;28;20451;-92
2022/07/11 01:59:49;;;;;;;1.23;0.90;;;18.30;89.40;;;;;;5117978;28;20180;-91
2022/07/11 02:02:15;;;;;;;0.67;0.60;;;18.20;89.60;;;;;;5116210;28;20195;-92
2022/07/11 02:04:41;;;;;;;0.90;0.90;;;18.20;89.80;;;;;;5116758;28;20598;-92
2022/07/11 02:07:06;;;;;;;1.03;0.87;;;18.10;89.80;;;;;;5115820;28;20928;-92
2022/07/11 02:09:32;;;;;;;0.90;0.70;;;18.10;89.90;;;;;;5117022;28;20207;-92
2022/07/11 02:11:58;;;;;;;1.53;0.80;;;18.10;90.00;;;;;;5119076;28;20194;-92
2022/07/11 02:14:24;;;;;;;3.07;0.83;;;18.10;90.00;;;;;;5116222;28;20168;-93
2022/07/11 02:16:49;;;;;;;0.90;0.80;;;18.00;90.00;;;;;;5117584;28;20250;-95
2022/07/11 02:19:15;;;;;;;1.20;0.67;;;18.00;90.10;;;;;;5117475;28;20179;-92
2022/07/11 02:21:41;;;;;;;5.80;1.10;;;17.90;90.20;;;;;;5121266;28;20292;-93
2022/07/11 02:24:08;;;;;;;1.80;0.97;;;17.90;90.30;;;;;;5114830;28;20427;-94
2022/07/11 02:26:34;;;;;;;0.90;0.80;;;17.80;90.40;;;;;;5115872;28;20444;-94
2022/07/11 02:29:00;;;;;;;0.80;0.80;;;17.70;90.50;;;;;;5114600;28;20472;-95
2022/07/11 02:31:26;;;;;;;1.00;0.90;;;17.70;90.60;;;;;;5114567;28;20483;-94
2022/07/11 02:33:51;;;;;;;2.57;0.93;;;17.60;90.70;;;;;;5115786;28;20168;-93
2022/07/11 02:36:17;;;;;;;0.90;0.90;;;17.50;90.80;;;;;;5116090;28;20233;-95
2022/07/11 02:38:43;;;;;;;3.10;0.90;;;17.50;90.90;;;;;;5113748;28;20168;-93
2022/07/11 02:41:08;;;;;;;0.67;0.67;;;17.50;91.00;;;;;;5114648;28;20175;-92
2022/07/11 02:43:34;;;;;;;2.40;1.20;;;17.40;91.10;;;;;;5114482;28;20525;-93
2022/07/11 02:46:01;;;;;;;1.30;1.10;;;17.40;91.20;;;;;;5113791;28;20203;-96
2022/07/11 02:48:27;;;;;;;0.90;0.90;;;17.30;91.20;;;;;;5114971;28;20400;-95
2022/07/11 02:50:53;;;;;;;4.00;1.03;;;17.30;91.30;;;;;;5116496;28;20471;-94
2022/07/11 02:53:18;;;;;;;1.10;0.97;;;17.20;91.30;;;;;;5115243;28;20470;-94
2022/07/11 02:55:45;;;;;;;0.97;0.97;;;17.20;91.40;;;;;;5116307;28;20259;-93
2022/07/11 02:58:11;;;;;;;1.00;0.70;;;17.20;91.40;;;;;;5115143;28;20916;-93
2022/07/11 03:00:37;;;;;;;1.30;1.20;;;17.10;91.50;;;;;;5116043;28;20479;-93
2022/07/11 03:03:03;;;;;;;0.90;0.87;;;17.10;91.50;;;;;;5117775;28;20948;-93
2022/07/11 03:05:28;;;;;;;1.37;1.27;;;17.00;91.60;;;;;;5115572;28;20176;-95
2022/07/11 03:07:54;;;;;;;2.30;1.10;;;16.90;92.00;;;;;;5115302;28;21024;-95
2022/07/11 03:10:23;;;;;;;0.63;0.63;;;16.90;91.80;;;;;;5116442;28;20467;-94
2022/07/11 03:12:49;;;;;;;1.20;0.93;;;16.80;91.90;;;;;;5116340;28;20192;-91
2022/07/11 03:15:14;;;;;;;1.60;1.00;;;16.80;91.90;;;;;;5115617;28;20429;-92
2022/07/11 03:17:40;;;;;;;0.97;0.97;;;16.80;92.10;;;;;;5117129;28;20812;-93
2022/07/11 03:20:08;;;;;;;1.30;1.00;;;16.70;92.10;;;;;;5115787;28;20174;-93
2022/07/11 03:22:33;;;;;;;2.10;1.60;;;16.70;92.10;;;;;;5114738;28;20652;-92
2022/07/11 03:25:08;;;;;;;2.30;1.27;;;16.70;92.20;;;;;;5115867;27;20399;-92
2022/07/11 03:27:34;;;;;;;1.63;1.23;;;16.60;92.30;;;;;;5116440;28;20202;-94
2022/07/11 03:30:00;;;;;;;0.87;0.87;;;16.60;92.40;;;;;;5117283;28;20452;-93
2022/07/11 03:32:25;;;;;;;1.43;1.10;;;16.50;92.50;;;;;;5115902;28;20195;-95
2022/07/11 03:37:35;;;;;;;3.80;3.30;;;16.40;92.60;;;;;;5116738;28;20600;-94
2022/07/11 03:40:01;;;;;;;2.40;1.77;;;16.40;92.80;;;;;;5116951;28;20428;-93
2022/07/11 03:42:27;;;;;;;1.87;1.77;;;16.30;92.80;;;;;;5115494;28;20566;-95
2022/07/11 03:44:53;;;;;;;1.27;1.17;;;16.30;92.90;;;;;;5115611;28;20629;-94
2022/07/11 03:47:22;;;;;;;3.20;1.60;;;16.30;93.00;;;;;;5115649;28;20480;-92
2022/07/11 03:49:48;;;;;;;6.70;1.80;;;16.20;93.10;;;;;;5116388;28;20647;-95
2022/07/11 03:52:13;;;;;;;1.83;1.43;;;16.20;93.20;;;;;;5122610;28;20454;-92
2022/07/11 03:54:39;;;;;;;2.27;1.70;;;16.20;93.30;;;;;;5115426;28;20625;-93
2022/07/11 03:57:06;;;;;;;2.20;1.53;;;16.20;93.30;;;;;;5116208;28;20440;-94
2022/07/11 03:59:31;;;;;;;1.60;1.50;;;16.10;93.50;;;;;;5117090;28;20189;-94
2022/07/11 04:01:57;;;;;;;2.23;1.73;;;16.10;93.60;;;;;;5114714;28;20481;-95
2022/07/11 04:04:23;;;;;;;3.20;1.80;;;16.10;94.10;;;;;;5117630;28;20259;-94
2022/07/11 04:06:48;;;;;;;3.37;1.57;;;16.00;93.90;;;;;;5117607;28;20227;-92
2022/07/11 04:09:14;;;;;;;2.00;1.53;;;16.00;94.00;;;;;;5120041;28;20262;-93
2022/07/11 04:11:40;;;;;;;2.00;1.73;;;16.00;94.10;;;;;;5115451;28;20614;-94
2022/07/11 04:14:06;;;;;;;2.23;1.30;;;16.00;94.20;;;;;;5115064;28;20183;-92
2022/07/11 04:16:31;;;;;;;2.70;1.90;;;16.00;94.30;;;;;;5119579;28;20447;-94
2022/07/11 04:18:57;;;;;;;2.10;1.60;;;16.00;94.40;;;;;;5115152;28;20172;-92
2022/07/11 04:21:23;;;;;;;2.30;1.53;;;16.00;94.50;;;;;;5115351;28;20257;-95
2022/07/11 04:23:48;;;;;;;2.50;1.60;;;16.00;94.60;;;;;;5115338;28;20242;-92
2022/07/11 04:26:14;;;;;;;2.73;1.90;;;16.00;94.70;;;;;;5115152;28;20247;-92
2022/07/11 04:28:40;;;;;;;2.83;1.67;;;16.00;95.10;;;;;;5123332;28;20167;-93
2022/07/11 04:31:06;;;;;;;1.53;1.43;;;16.00;94.80;;;;;;5119433;28;20456;-94
2022/07/11 04:33:32;;;;;;;5.90;1.50;;;16.00;95.00;;;;;;5119977;28;20404;-93
2022/07/11 04:35:57;;;;;;;4.33;1.60;;;16.00;95.10;;;;;;5119388;28;20180;-92
2022/07/11 04:38:23;;;;;;;2.03;1.83;;;16.10;95.10;;;;;;5119934;28;20222;-93
2022/07/11 04:40:50;;;;;;;1.50;1.40;;;16.10;95.10;;;;;;5119847;28;20198;-93
2022/07/11 04:43:16;;;;;;;1.27;1.17;;;16.20;95.20;;;;;;5119177;28;20490;-93
2022/07/11 04:45:42;;;;;;;2.23;1.77;;;16.20;95.20;;;;;;5116121;28;20921;-91
2022/07/11 04:48:07;;;;;;;2.53;1.60;;;16.20;95.30;;;;;;5111510;28;20499;-94
2022/07/11 04:50:33;;;;;;;1.17;1.07;;;16.30;95.30;;;;;;5112547;28;20208;-92
2022/07/11 04:52:59;;;;;;;1.60;1.50;;;16.30;95.20;;;;;;5098813;28;20704;-95
2022/07/11 04:55:24;;;;;;;8.37;4.47;;;16.40;95.30;;;;;;5108368;28;20184;-92
2022/07/11 04:57:51;;;;;;;27.97;16.17;;;16.50;95.20;;;;;;5103409;28;20269;-95
2022/07/11 05:00:17;;;;;;;4.93;2.13;;;16.50;95.30;;;;;;5100201;28;20194;-94
2022/07/11 05:02:43;;;;;;;1.30;1.10;;;16.60;95.20;;;;;;5098669;28;20879;-94
2022/07/11 05:05:08;;;;;;;1.50;1.13;;;16.70;95.20;;;;;;5103232;28;20447;-94
2022/07/11 05:07:34;;;;;;;2.33;2.13;;;16.70;95.30;;;;;;5119136;28;20511;-93
2022/07/11 05:10:00;;;;;;;1.77;1.10;;;16.80;95.40;;;;;;5121134;28;20676;-92
2022/07/11 05:12:25;;;;;;;2.53;1.23;;;16.80;95.30;;;;;;5118267;28;20604;-94
2022/07/11 05:14:51;;;;;;;1.40;1.30;;;16.90;95.30;;;;;;5118150;28;20202;-95
2022/07/11 05:17:17;;;;;;;2.40;1.27;;;17.00;95.70;;;;;;5117428;28;20196;-93
2022/07/11 05:19:42;;;;;;;1.43;1.30;;;17.10;95.90;;;;;;5120573;28;20179;-93
2022/07/11 05:22:08;;;;;;;6.00;1.23;;;17.30;97.00;;;;;;5112690;28;20201;-94
2022/07/11 05:24:34;;;;;;;1.37;1.10;;;17.50;97.50;;;;;;5106942;28;20230;-92
2022/07/11 05:27:00;;;;;;;1.77;1.30;;;17.70;97.70;;;;;;5096478;28;20196;-93
2022/07/11 05:29:26;;;;;;;2.43;1.70;;;17.80;97.60;;;;;;5096855;28;20173;-92
2022/07/11 05:31:52;;;;;;;1.07;0.93;;;17.90;97.00;;;;;;5098769;28;20979;-95
2022/07/11 05:34:18;;;;;;;1.40;1.30;;;18.10;97.80;;;;;;5109364;28;20648;-95
2022/07/11 05:36:44;;;;;;;1.57;1.20;;;18.20;97.80;;;;;;5117988;28;20451;-93
2022/07/11 05:39:10;;;;;;;1.17;1.03;;;18.40;97.80;;;;;;5117708;28;20395;-93
2022/07/11 05:41:36;;;;;;;1.40;1.30;;;18.50;97.50;;;;;;5117761;28;20230;-94
2022/07/11 05:44:02;;;;;;;3.70;1.50;;;18.50;97.60;;;;;;5116267;28;20271;-92
2022/07/11 05:46:27;;;;;;;1.50;1.30;;;18.70;97.60;;;;;;5118983;28;20508;-95
2022/07/11 05:48:53;;;;;;;2.23;1.30;;;18.80;97.60;;;;;;5105101;28;20187;-93
2022/07/11 05:51:19;;;;;;;1.00;1.00;;;18.90;97.70;;;;;;5102291;28;20564;-93
2022/07/11 05:53:45;;;;;;;2.07;1.50;;;19.00;97.60;;;;;;5098550;28;20544;-94
2022/07/11 05:56:10;;;;;;;1.13;1.00;;;19.00;97.60;;;;;;5114617;28;20180;-95
2022/07/11 05:58:36;;;;;;;1.60;1.10;;;19.10;97.60;;;;;;5117425;28;20172;-94
2022/07/11 06:01:02;;;;;;;2.50;1.57;;;19.10;97.60;;;;;;5120400;28;20178;-94
2022/07/11 06:03:27;;;;;;;1.67;1.30;;;19.10;97.70;;;;;;5115572;28;20583;-94
2022/07/11 06:05:53;;;;;;;1.93;1.40;;;19.20;97.50;;;;;;5112868;28;20506;-95
2022/07/11 06:11:03;;;;;;;2.20;1.27;;;19.20;97.30;;;;;;5115132;28;20525;-92
2022/07/11 06:13:32;;;;;;;2.57;1.10;;;19.40;97.20;;;;;;5114543;28;20442;-93
2022/07/11 06:15:58;;;;;;;1.37;1.00;;;19.40;97.40;;;;;;5111424;28;20182;-93
2022/07/11 06:18:24;;;;;;;1.70;1.40;;;19.40;97.30;;;;;;5105253;28;20437;-93
2022/07/11 06:20:50;;;;;;;1.30;1.20;;;19.40;96.50;;;;;;5108052;28;20421;-93
2022/07/11 06:23:16;;;;;;;1.60;1.20;;;19.30;94.30;;;;;;5105237;28;20197;-94
2022/07/11 06:25:42;;;;;;;2.97;1.40;;;19.30;94.30;;;;;;5109894;28;20495;-93
2022/07/11 06:28:07;;;;;;;1.17;1.07;;;19.30;93.90;;;;;;5106162;28;20197;-95
2022/07/11 06:30:36;;;;;;;1.00;0.90;;;19.30;93.90;;;;;;5105932;28;20195;-95
2022/07/11 06:33:03;;;;;;;23.07;10.17;;;19.40;93.70;;;;;;5111635;28;20233;-92
2022/07/11 06:35:29;;;;;;;106.63;49.23;;;19.40;93.60;;;;;;5107649;28;20451;-94
2022/07/11 06:37:56;;;;;;;6.40;4.53;;;19.40;93.80;;;;;;5110445;28;20494;-94
2022/07/11 06:40:22;;;;;;;2.33;1.70;;;19.50;93.90;;;;;;5105844;28;20526;-95
2022/07/11 06:42:49;;;;;;;5.67;4.20;;;19.50;93.20;;;;;;5096119;28;20461;-92
2022/07/11 06:45:15;;;;;;;1.60;1.37;;;19.60;93.10;;;;;;5103307;28;20837;-93
2022/07/11 06:47:41;;;;;;;3.00;1.70;;;19.70;93.10;;;;;;5113154;28;20457;-92
2022/07/11 06:50:08;;;;;;;1.60;1.23;;;19.70;92.90;;;;;;5100418;28;20476;-95
2022/07/11 06:52:33;;;;;;;1.23;1.00;;;19.80;93.00;;;;;;5106630;28;20543;-94
2022/07/11 06:54:59;;;;;;;2.03;1.33;;;19.80;92.80;;;;;;5107633;28;20551;-91
2022/07/11 06:57:25;;;;;;;2.03;1.33;;;19.90;92.80;;;;;;5107982;28;20615;-95
2022/07/11 06:59:51;;;;;;;1.67;1.57;;;20.00;92.60;;;;;;5103942;28;20674;-92
2022/07/11 07:02:16;;;;;;;1.30;1.20;;;20.10;92.30;;;;;;5101060;28;20229;-92
2022/07/11 07:04:42;;;;;;;1.40;1.30;;;20.10;92.40;;;;;;5110837;28;20269;-92
2022/07/11 07:07:08;;;;;;;1.10;1.00;;;20.20;92.30;;;;;;5110760;28;20250;-96
2022/07/11 07:09:33;;;;;;;1.63;1.37;;;20.30;92.20;;;;;;5109861;28;20168;-93
2022/07/11 07:11:59;;;;;;;1.20;1.10;;;20.30;92.10;;;;;;5108909;28;20522;-95
2022/07/11 07:14:25;;;;;;;1.50;1.37;;;20.40;92.10;;;;;;5109885;28;20259;-92
2022/07/11 07:16:50;;;;;;;1.50;1.40;;;20.40;91.90;;;;;;5110191;28;20701;-94
2022/07/11 07:19:16;;;;;;;2.27;1.20;;;20.50;92.10;;;;;;5110913;28;20646;-94
2022/07/11 07:21:42;;;;;;;2.23;2.03;;;20.60;91.70;;;;;;5111426;28;20497;-95
2022/07/11 07:24:07;;;;;;;3.37;3.07;;;20.60;91.70;;;;;;5112156;28;20177;-92
2022/07/11 07:26:33;;;;;;;38.30;23.57;;;20.70;91.70;;;;;;5107637;28;20207;-92
2022/07/11 07:28:59;;;;;;;2.03;1.83;;;20.70;91.40;;;;;;5096357;28;20193;-91
2022/07/11 07:31:25;;;;;;;8.70;5.23;;;20.70;91.40;;;;;;5091701;28;20752;-92
2022/07/11 07:33:51;;;;;;;1.97;1.80;;;20.80;91.30;;;;;;5106455;28;20583;-94
2022/07/11 07:36:17;;;;;;;1.10;1.00;;;20.90;91.40;;;;;;5097641;28;20419;-92
2022/07/11 07:38:46;;;;;;;1.43;1.30;;;21.00;91.40;;;;;;5105430;28;20435;-92
2022/07/11 07:41:13;;;;;;;4.30;1.20;;;21.10;91.30;;;;;;5107147;28;20689;-91
2022/07/11 07:43:39;;;;;;;2.47;1.33;;;21.10;91.10;;;;;;5118104;28;20446;-93
2022/07/11 07:46:05;;;;;;;4.27;1.40;;;21.20;90.80;;;;;;5107285;28;20429;-92
2022/07/11 07:48:30;;;;;;;1.07;1.07;;;21.20;90.60;;;;;;5124529;28;20404;-92
2022/07/11 07:50:56;;;;;;;42.37;22.60;;;21.30;90.40;;;;;;5103878;28;20501;-95
2022/07/11 07:53:22;;;;;;;70.80;37.10;;;21.30;90.40;;;;;;5098170;28;20258;-95
2022/07/11 07:55:49;;;;;;;5.40;3.70;;;21.40;90.40;;;;;;5091849;28;20172;-96
2022/07/11 07:58:15;;;;;;;8.00;2.50;;;21.40;90.40;;;;;;5095771;28;20241;-92
2022/07/11 08:03:26;;;;;;;1.33;1.23;;;21.60;90.20;;;;;;5117880;28;20187;-96
2022/07/11 08:05:52;;;;;;;2.33;1.43;;;21.70;90.00;;;;;;5112099;28;20459;-92
2022/07/11 08:08:17;;;;;;;1.50;1.40;;;21.80;90.00;;;;;;5104941;28;20447;-95
2022/07/11 08:10:43;;;;;;;1.23;1.13;;;21.80;89.30;;;;;;5113476;28;20223;-94
2022/07/11 08:13:09;;;;;;;1.27;1.17;;;21.90;88.90;;;;;;5108663;28;20215;-93
2022/07/11 08:15:35;;;;;;;1.47;1.37;;;22.00;88.80;;;;;;5117733;28;20176;-92
2022/07/11 08:18:00;;;;;;;1.30;1.20;;;22.00;88.40;;;;;;5112365;28;20287;-95
2022/07/11 08:20:26;;;;;;;4.07;1.07;;;22.10;88.00;;;;;;5121658;28;20519;-93
2022/07/11 08:22:52;;;;;;;0.80;0.80;;;22.20;87.00;;;;;;5121072;28;20727;-95
2022/07/11 08:25:17;;;;;;;0.90;0.90;;;22.20;86.50;;;;;;5123350;28;20166;-93
2022/07/11 08:27:43;;;;;;;1.40;1.30;;;22.20;87.20;;;;;;5116773;28;20195;-93
2022/07/11 08:30:09;;;;;;;1.63;1.37;;;22.20;86.90;;;;;;5107427;28;20238;-93
2022/07/11 08:32:40;;;;;;;1.00;1.00;;;22.30;86.40;;;;;;5115809;28;20207;-93
2022/07/11 08:35:06;;;;;;;1.47;1.27;;;22.30;85.00;;;;;;5111988;28;20842;-93
2022/07/11 08:37:32;;;;;;;1.63;0.93;;;22.40;85.30;;;;;;5118434;28;20443;-96
2022/07/11 08:39:58;;;;;;;1.20;0.90;;;22.40;84.90;;;;;;5103198;28;20405;-95
2022/07/11 08:42:27;;;;;;;4.47;1.00;;;22.50;84.60;;;;;;5108869;28;20223;-96
2022/07/11 08:44:55;;;;;;;1.17;1.07;;;22.60;84.00;;;;;;5114294;28;20185;-96
2022/07/11 08:47:21;;;;;;;1.30;1.20;;;22.60;83.80;;;;;;5113264;28;20594;-96
2022/07/11 08:49:48;;;;;;;1.23;1.13;;;22.70;83.10;;;;;;5114512;27;20455;-95
2022/07/11 08:52:19;;;;;;;1.00;0.90;;;22.70;83.10;;;;;;5112206;28;20805;-93
2022/07/11 08:54:45;;;;;;;1.33;1.13;;;22.70;83.10;;;;;;5107957;28;20514;-96
2022/07/11 08:57:12;;;;;;;0.87;0.87;;;22.80;82.70;;;;;;5118474;28;20452;-96
2022/07/11 08:59:41;;;;;;;0.83;0.83;;;22.90;82.60;;;;;;5114079;28;20933;-93
2022/07/11 09:02:09;;;;;;;0.93;0.90;;;22.90;81.80;;;;;;5098632;28;20961;-96
2022/07/11 09:04:35;;;;;;;6.73;1.00;;;23.00;82.00;;;;;;5099987;28;20415;-95
2022/07/11 09:07:02;;;;;;;1.20;0.90;;;23.00;82.30;;;;;;5096231;28;20468;-95
2022/07/11 09:09:30;;;;;;;1.00;0.90;;;23.10;82.50;;;;;;5105240;28;20270;-93
2022/07/11 09:11:57;;;;;;;1.00;0.90;;;23.10;82.50;;;;;;5107564;28;20853;-95
2022/07/11 09:14:29;;;;;;;1.67;1.20;;;23.20;82.50;;;;;;5101040;28;20807;-96
2022/07/11 09:17:03;;;;;;;5.17;1.43;;;23.20;82.70;;;;;;5107850;28;20455;-93
2022/07/11 09:19:42;;;;;;;0.90;0.80;;;23.30;82.10;;;;;;5111823;28;20530;-96
2022/07/11 09:27:54;;;;;;;4.00;1.23;;;23.50;81.50;;;;;;5117669;28;20451;-96
2022/07/11 09:30:31;;;;;;;5.17;1.23;;;23.50;80.90;;;;;;5114328;28;20475;-93
2022/07/11 09:33:02;;;;;;;2.87;1.23;;;23.50;80.70;;;;;;5099342;28;20457;-95
2022/07/11 09:35:40;;;;;;;1.57;1.00;;;23.60;81.00;;;;;;5104538;28;20434;-96
2022/07/11 09:38:11;;;;;;;1.70;0.83;;;23.60;81.00;;;;;;5111005;28;20525;-96
2022/07/11 09:40:38;;;;;;;1.00;0.80;;;23.70;80.20;;;;;;5104380;28;20412;-96
2022/07/11 09:43:05;;;;;;;1.13;1.03;;;23.70;79.70;;;;;;5116996;28;20821;-96
2022/07/11 09:45:32;;;;;;;2.10;1.07;;;23.80;79.30;;;;;;5110850;28;20424;-95
2022/07/11 09:48:11;;;;;;;1.17;0.90;;;23.80;79.10;;;;;;5119246;28;20560;-95
2022/07/11 09:50:39;;;;;;;0.80;0.80;;;23.90;77.80;;;;;;5099524;28;20453;-94
2022/07/11 09:53:10;;;;;;;1.20;1.00;;;23.90;78.70;;;;;;5109602;28;20448;-95
2022/07/11 09:55:40;;;;;;;1.17;1.07;;;24.00;79.20;;;;;;5104414;28;21038;-94
2022/07/11 09:58:10;;;;;;;1.60;0.90;;;24.10;79.10;;;;;;5112841;28;20492;-94
2022/07/11 10:00:38;;;;;;;0.90;0.90;;;24.10;78.60;;;;;;5095236;28;20423;-93
2022/07/11 10:03:05;;;;;;;1.47;1.03;;;24.10;77.80;;;;;;5092135;28;20450;-93
2022/07/11 10:05:31;;;;;;;1.10;1.00;;;24.20;77.90;;;;;;5092701;28;20411;-93
2022/07/11 10:08:01;;;;;;;1.17;1.00;;;24.20;78.00;;;;;;5097081;28;20446;-93
2022/07/11 10:10:29;;;;;;;2.37;1.17;;;24.10;77.30;;;;;;5100971;28;20500;-93
2022/07/11 10:12:57;;;;;;;4.00;1.00;;;24.10;77.00;;;;;;5104681;28;20442;-93
2022/07/11 10:15:34;;;;;;;1.87;1.10;;;24.10;77.10;;;;;;5101405;28;20397;-96
2022/07/11 10:18:02;;;;;;;1.53;1.10;;;24.00;77.80;;;;;;5099769;28;20991;-94
2022/07/11 10:20:52;;;;;;;0.80;0.80;;;24.00;78.20;;;;;;5108319;28;20460;-93
2022/07/11 10:23:28;;;;;;;0.80;0.80;;;24.00;78.40;;;;;;5108727;28;20460;-94
2022/07/11 10:26:06;;;;;;;0.90;0.90;;;24.10;77.90;;;;;;5104261;28;20410;-96
2022/07/11 10:28:53;;;;;;;0.97;0.90;;;24.10;77.90;;;;;;5099524;28;20506;-96
2022/07/11 10:31:20;;;;;;;0.80;0.80;;;24.20;77.60;;;;;;5104713;28;20487;-93
2022/07/11 10:34:18;;;;;;;0.90;0.90;;;24.20;76.60;;;;;;5102204;28;20503;-93
2022/07/11 10:36:45;;;;;;;2.00;1.03;;;24.20;76.30;;;;;;5102953;28;21033;-96
2022/07/11 10:39:29;;;;;;;0.90;0.90;;;24.20;76.10;;;;;;5102586;28;20410;-92
2022/07/11 10:41:57;;;;;;;1.73;1.63;;;24.10;76.40;;;;;;5109326;28;20494;-94
2022/07/11 10:44:23;;;;;;;4.80;1.10;;;24.10;76.60;;;;;;5116909;28;20418;-96
2022/07/11 10:46:49;;;;;;;3.83;1.40;;;24.10;75.30;;;;;;5111267;28;20510;-96
2022/07/11 10:49:15;;;;;;;1.23;1.00;;;24.10;75.30;;;;;;5099323;28;20433;-96
2022/07/11 10:51:54;;;;;;;1.07;0.87;;;24.10;75.50;;;;;;5103062;28;20708;-94
2022/07/11 10:54:41;;;;;;;0.93;0.90;;;24.10;75.50;;;;;;5099056;28;20431;-96
2022/07/11 10:57:16;;;;;;;1.37;1.00;;;24.20;75.50;;;;;;5109122;28;20476;-96
2022/07/11 11:00:14;;;;;;;1.17;0.87;;;24.20;76.40;;;;;;5107321;28;20808;-93
2022/07/11 11:03:01;;;;;;;0.80;0.80;;;24.30;76.30;;;;;;5086229;28;20559;-96
2022/07/11 11:05:48;;;;;;;1.90;1.20;;;24.30;76.00;;;;;;5102658;28;21005;-93
2022/07/11 11:08:35;;;;;;;1.37;1.10;;;24.30;74.80;;;;;;5107646;28;20457;-93
2022/07/11 11:11:34;;;;;;;1.20;1.10;;;24.30;74.70;;;;;;5105146;28;20476;-93
2022/07/11 11:14:16;;;;;;;1.00;1.00;;;24.30;74.40;;;;;;5103720;28;20487;-92
2022/07/11 11:16:43;;;;;;;1.00;0.87;;;24.30;74.80;;;;;;5106827;28;20978;-94
2022/07/11 11:19:46;;;;;;;1.30;1.20;;;24.30;75.00;;;;;;5100263;28;20482;-95
2022/07/11 11:22:13;;;;;;;1.13;1.00;;;24.30;75.20;;;;;;5106979;28;20387;-93
2022/07/11 11:24:39;;;;;;;1.13;1.03;;;24.30;75.40;;;;;;5097970;28;20835;-93
2022/07/11 11:27:05;;;;;;;1.20;0.90;;;24.30;75.60;;;;;;5095670;28;20554;-93
2022/07/11 11:29:31;;;;;;;0.83;0.83;;;24.30;75.70;;;;;;5107424;28;20182;-93
2022/07/11 11:31:59;;;;;;;1.00;0.93;;;24.30;75.30;;;;;;5106022;28;20496;-96
2022/07/11 11:34:26;;;;;;;2.80;1.33;;;24.30;76.20;;;;;;5105249;28;20427;-92
2022/07/11 11:36:53;;;;;;;1.10;0.90;;;24.40;75.20;;;;;;5101645;28;20462;-93
2022/07/11 11:39:45;;;;;;;1.23;0.87;;;24.40;75.00;;;;;;5108151;28;20872;-96
2022/07/11 11:42:13;;;;;;;0.80;0.80;;;24.40;75.00;;;;;;5101392;28;20453;-94
2022/07/11 11:44:56;;;;;;;1.20;1.10;;;24.50;75.10;;;;;;5101656;28;20422;-96
2022/07/11 11:47:21;;;;;;;1.07;1.00;;;24.50;75.10;;;;;;5102157;28;20471;-96
2022/07/11 11:49:49;;;;;;;1.07;0.97;;;24.50;75.10;;;;;;5096377;28;20450;-95
2022/07/11 11:52:16;;;;;;;1.97;1.20;;;24.50;75.10;;;;;;5108103;28;20946;-96
2022/07/11 11:54:41;;;;;;;0.80;0.80;;;24.50;74.70;;;;;;5102811;28;20452;-96
2022/07/11 11:57:12;;;;;;;1.00;1.00;;;24.50;74.20;;;;;;5101914;28;20462;-96
2022/07/11 11:59:39;;;;;;;1.37;1.03;;;24.50;74.30;;;;;;5105349;28;20707;-94
2022/07/11 12:02:05;;;;;;;2.17;0.80;;;24.40;73.50;;;;;;5097235;28;20465;-95
2022/07/11 12:04:33;;;;;;;1.27;1.13;;;24.40;73.60;;;;;;5093100;28;20524;-96
2022/07/11 12:07:01;;;;;;;1.10;1.00;;;24.40;73.90;;;;;;5092142;28;21088;-96
2022/07/11 12:14:56;;;;;;;0.70;0.70;;;24.60;74.50;;;;;;5102829;28;20445;-96
2022/07/11 12:17:26;;;;;;;0.87;0.83;;;24.60;74.60;;;;;;5103434;28;20997;-96
2022/07/11 12:19:52;;;;;;;1.00;1.00;;;24.70;74.10;;;;;;5100100;28;20422;-96
2022/07/11 12:22:19;;;;;;;1.10;1.00;;;24.70;73.80;;;;;;5104216;28;20458;-96
2022/07/11 12:24:50;;;;;;;1.10;1.10;;;24.70;73.60;;;;;;5109642;28;20430;-96
2022/07/11 12:27:24;;;;;;;1.37;1.10;;;24.60;73.80;;;;;;5093965;28;20871;-93
2022/07/11 12:29:51;;;;;;;1.00;1.00;;;24.60;73.30;;;;;;5112516;28;20418;-94
2022/07/11 12:32:18;;;;;;;0.97;0.87;;;24.60;73.10;;;;;;5107210;28;20478;-93
2022/07/11 12:34:51;;;;;;;1.10;0.90;;;24.60;72.80;;;;;;5114528;28;20420;-96
2022/07/11 12:37:19;;;;;;;1.97;1.20;;;24.50;73.20;;;;;;5103076;28;20571;-96
2022/07/11 12:39:51;;;;;;;1.47;1.27;;;24.40;73.20;;;;;;5105711;28;20410;-93
2022/07/11 12:42:34;;;;;;;1.70;1.60;;;24.40;73.50;;;;;;5098748;28;20466;-95
2022/07/11 12:45:10;;;;;;;2.33;1.10;;;24.40;73.60;;;;;;5105753;28;20447;-95
2022/07/11 12:47:38;;;;;;;1.40;0.93;;;24.30;73.30;;;;;;5109309;28;20477;-92
2022/07/11 12:50:15;;;;;;;1.23;0.90;;;24.30;73.60;;;;;;5116801;28;20992;-96
2022/07/11 12:52:45;;;;;;;1.10;0.90;;;24.30;73.70;;;;;;5120045;28;21004;-92
2022/07/11 12:55:11;;;;;;;2.70;1.00;;;24.30;73.80;;;;;;5114633;28;20479;-93
2022/07/11 12:57:38;;;;;;;1.10;0.90;;;24.40;74.40;;;;;;5109942;28;20477;-93
2022/07/11 13:00:17;;;;;;;1.37;0.80;;;24.40;73.20;;;;;;5113627;28;20422;-96
2022/07/11 13:02:49;;;;;;;0.80;0.80;;;24.30;72.70;;;;;;5102400;28;20545;-93
2022/07/11 13:05:15;;;;;;;4.00;1.07;;;24.40;73.50;;;;;;5119473;28;20436;-95
2022/07/11 13:10:51;;;;;;;0.80;0.80;;;24.50;74.70;;;;;;5104776;28;21035;-96
2022/07/11 13:13:20;;;;;;;2.40;0.87;;;24.60;73.00;;;;;;5104245;28;20469;-94